sensor_id;sensor_type;location;lat;lon;timestamp;pressure;altitude;pressure_sealevel;temperature;humidity
46876;BME280;32866;50.160;14.768;2022-09-30T00:01:38;98572.66;;;7.36;100.00
46876;BME280;32866;50.160;14.768;2022-09-30T00:04:03;98585.31;;;7.43;100.00
46876;BME280;32866;50.160;14.768;2022-09-30T00:06:29;98552.03;;;7.35;100.00
46876;BME280;32866;50.160;14.768;2022-09-30T00:08:56;98580.72;;;7.66;100.00
46876;BME280;32866;50.160;14.768;2022-09-30T00:11:25;98591.63;;;7.66;100.00
46876;BME280;32866;50.160;14.768;2022-09-30T00:13:52;98584.97;;;7.54;100.00
46876;BME280;32866;50.160;14.768;2022-09-30T00:16:19;98591.75;;;7.36;100.00
46876;BME280;32866;50.160;14.768;2022-09-30T00:18:48;98604.38;;;7.30;100.00
46876;BME280;32866;50.160;14.768;2022-09-30T00:21:15;98569.56;;;7.09;100.00
46876;BME280;32866;50.160;14.768;2022-09-30T00:23:41;98588.44;;;7.16;100.00
46876;BME280;32866;50.160;14.768;2022-09-30T00:26:11;98604.59;;;7.49;100.00
46876;BME280;32866;50.160;14.768;2022-09-30T00:28:38;98600.34;;;7.35;100.00
46876;BME280;32866;50.160;14.768;2022-09-30T00:31:06;98548.63;;;6.93;100.00
46876;BME280;32866;50.160;14.768;2022-09-30T00:33:32;98596.84;;;7.47;100.00
46876;BME280;32866;50.160;14.768;2022-09-30T00:35:58;98601.13;;;7.61;100.00
46876;BME280;32866;50.160;14.768;2022-09-30T00:38:23;98604.38;;;7.69;100.00
46876;BME280;32866;50.160;14.768;2022-09-30T00:40:49;98606.34;;;7.68;100.00
46876;BME280;32866;50.160;14.768;2022-09-30T00:43:37;98593.78;;;7.71;100.00
46876;BME280;32866;50.160;14.768;2022-09-30T00:46:09;98595.75;;;7.57;100.00
46876;BME280;32866;50.160;14.768;2022-09-30T00:48:38;98571.56;;;7.34;100.00
46876;BME280;32866;50.160;14.768;2022-09-30T00:51:05;98596.09;;;7.47;100.00
46876;BME280;32866;50.160;14.768;2022-09-30T00:53:50;98598.81;;;7.34;100.00
46876;BME280;32866;50.160;14.768;2022-09-30T00:56:20;98554.84;;;6.93;100.00
46876;BME280;32866;50.160;14.768;2022-09-30T00:58:55;98596.84;;;7.21;100.00
46876;BME280;32866;50.160;14.768;2022-09-30T01:01:24;98596.63;;;7.16;100.00
46876;BME280;32866;50.160;14.768;2022-09-30T01:03:57;98556.91;;;6.89;100.00
46876;BME280;32866;50.160;14.768;2022-09-30T01:06:23;98553.50;;;6.85;100.00
46876;BME280;32866;50.160;14.768;2022-09-30T01:08:49;98605.44;;;7.20;100.00
46876;BME280;32866;50.160;14.768;2022-09-30T01:11:15;98591.72;;;7.11;100.00
46876;BME280;32866;50.160;14.768;2022-09-30T01:13:41;98596.94;;;7.18;100.00
46876;BME280;32866;50.160;14.768;2022-09-30T01:16:31;98586.19;;;7.40;100.00
46876;BME280;32866;50.160;14.768;2022-09-30T01:19:16;98562.28;;;7.05;100.00
46876;BME280;32866;50.160;14.768;2022-09-30T01:30:06;98600.06;;;7.03;100.00
46876;BME280;32866;50.160;14.768;2022-09-30T01:33:02;98593.72;;;6.94;100.00
46876;BME280;32866;50.160;14.768;2022-09-30T01:38:11;98592.44;;;6.98;100.00
46876;BME280;32866;50.160;14.768;2022-09-30T01:40:39;98604.53;;;6.97;100.00
46876;BME280;32866;50.160;14.768;2022-09-30T01:43:13;98582.13;;;6.77;100.00
46876;BME280;32866;50.160;14.768;2022-09-30T01:45:55;98598.56;;;7.02;100.00
46876;BME280;32866;50.160;14.768;2022-09-30T01:51:10;98568.53;;;6.47;100.00
46876;BME280;32866;50.160;14.768;2022-09-30T01:54:02;98618.41;;;6.74;100.00
46876;BME280;32866;50.160;14.768;2022-09-30T01:59:07;98594.22;;;6.76;100.00
46876;BME280;32866;50.160;14.768;2022-09-30T02:01:54;98631.09;;;6.93;100.00
46876;BME280;32866;50.160;14.768;2022-09-30T02:04:30;98622.81;;;6.84;100.00
46876;BME280;32866;50.160;14.768;2022-09-30T02:07:00;98639.78;;;6.88;100.00
46876;BME280;32866;50.160;14.768;2022-09-30T02:09:32;98637.06;;;6.88;100.00
46876;BME280;32866;50.160;14.768;2022-09-30T02:12:04;98583.59;;;6.52;100.00
46876;BME280;32866;50.160;14.768;2022-09-30T02:14:36;98646.09;;;6.85;100.00
46876;BME280;32866;50.160;14.768;2022-09-30T02:17:31;98631.31;;;6.86;100.00
46876;BME280;32866;50.160;14.768;2022-09-30T02:20:08;98639.94;;;6.97;100.00
46876;BME280;32866;50.160;14.768;2022-09-30T02:22:37;98647.91;;;7.04;100.00
46876;BME280;32866;50.160;14.768;2022-09-30T02:25:09;98628.53;;;7.02;100.00
46876;BME280;32866;50.160;14.768;2022-09-30T02:27:40;98619.03;;;6.94;100.00
46876;BME280;32866;50.160;14.768;2022-09-30T02:30:11;98603.59;;;6.75;100.00
46876;BME280;32866;50.160;14.768;2022-09-30T02:32:56;98608.44;;;6.96;100.00
46876;BME280;32866;50.160;14.768;2022-09-30T02:35:35;98629.28;;;7.03;100.00
46876;BME280;32866;50.160;14.768;2022-09-30T02:38:07;98610.53;;;6.92;100.00
46876;BME280;32866;50.160;14.768;2022-09-30T02:40:42;98627.66;;;7.05;100.00
46876;BME280;32866;50.160;14.768;2022-09-30T02:43:11;98623.88;;;7.16;100.00
46876;BME280;32866;50.160;14.768;2022-09-30T02:45:45;98628.41;;;7.06;100.00
46876;BME280;32866;50.160;14.768;2022-09-30T02:48:24;98629.84;;;7.11;100.00
46876;BME280;32866;50.160;14.768;2022-09-30T02:51:05;98649.63;;;6.98;100.00
46876;BME280;32866;50.160;14.768;2022-09-30T02:53:52;98649.56;;;7.15;100.00
46876;BME280;32866;50.160;14.768;2022-09-30T02:59:08;98645.41;;;7.10;100.00
46876;BME280;32866;50.160;14.768;2022-09-30T03:01:34;98614.09;;;6.89;100.00
46876;BME280;32866;50.160;14.768;2022-09-30T03:04:03;98649.38;;;7.22;100.00
46876;BME280;32866;50.160;14.768;2022-09-30T03:06:31;98629.13;;;6.94;100.00
46876;BME280;32866;50.160;14.768;2022-09-30T03:08:56;98661.59;;;7.17;100.00
46876;BME280;32866;50.160;14.768;2022-09-30T03:11:24;98647.44;;;7.22;100.00
46876;BME280;32866;50.160;14.768;2022-09-30T03:17:12;98665.53;;;7.29;100.00
46876;BME280;32866;50.160;14.768;2022-09-30T03:20:06;98659.28;;;7.16;100.00
46876;BME280;32866;50.160;14.768;2022-09-30T03:23:08;98617.38;;;6.97;100.00
46876;BME280;32866;50.160;14.768;2022-09-30T03:28:28;98662.88;;;7.25;100.00
46876;BME280;32866;50.160;14.768;2022-09-30T03:31:31;98652.41;;;7.11;100.00
46876;BME280;32866;50.160;14.768;2022-09-30T03:34:22;98667.59;;;7.25;100.00
46876;BME280;32866;50.160;14.768;2022-09-30T03:37:02;98645.47;;;6.94;100.00
46876;BME280;32866;50.160;14.768;2022-09-30T03:39:58;98668.34;;;7.25;100.00
46876;BME280;32866;50.160;14.768;2022-09-30T03:42:38;98681.88;;;7.29;100.00
46876;BME280;32866;50.160;14.768;2022-09-30T03:45:16;98673.66;;;7.16;100.00
46876;BME280;32866;50.160;14.768;2022-09-30T03:47:46;98681.09;;;7.16;100.00
46876;BME280;32866;50.160;14.768;2022-09-30T03:50:15;98683.03;;;7.15;100.00
46876;BME280;32866;50.160;14.768;2022-09-30T03:52:42;98703.66;;;7.16;100.00
46876;BME280;32866;50.160;14.768;2022-09-30T03:55:08;98684.03;;;7.21;100.00
46876;BME280;32866;50.160;14.768;2022-09-30T03:57:36;98637.50;;;6.86;100.00
46876;BME280;32866;50.160;14.768;2022-09-30T04:00:01;98693.91;;;7.02;100.00
46876;BME280;32866;50.160;14.768;2022-09-30T04:02:28;98682.31;;;6.98;100.00
46876;BME280;32866;50.160;14.768;2022-09-30T04:04:56;98672.47;;;6.88;100.00
46876;BME280;32866;50.160;14.768;2022-09-30T04:07:23;98686.59;;;6.99;100.00
46876;BME280;32866;50.160;14.768;2022-09-30T04:09:48;98672.81;;;7.19;100.00
46876;BME280;32866;50.160;14.768;2022-09-30T04:12:14;98678.91;;;7.11;100.00
46876;BME280;32866;50.160;14.768;2022-09-30T04:14:39;98645.44;;;6.81;100.00
46876;BME280;32866;50.160;14.768;2022-09-30T04:17:05;98676.69;;;7.05;100.00
46876;BME280;32866;50.160;14.768;2022-09-30T04:19:31;98677.56;;;7.02;100.00
46876;BME280;32866;50.160;14.768;2022-09-30T04:21:56;98698.28;;;7.13;100.00
46876;BME280;32866;50.160;14.768;2022-09-30T04:24:23;98681.91;;;7.00;100.00
46876;BME280;32866;50.160;14.768;2022-09-30T04:26:49;98686.13;;;7.30;100.00
46876;BME280;32866;50.160;14.768;2022-09-30T04:29:14;98681.00;;;7.19;100.00
46876;BME280;32866;50.160;14.768;2022-09-30T04:31:40;98646.66;;;6.63;100.00
46876;BME280;32866;50.160;14.768;2022-09-30T04:34:05;98685.88;;;6.82;100.00
46876;BME280;32866;50.160;14.768;2022-09-30T04:36:31;98693.75;;;6.93;100.00
46876;BME280;32866;50.160;14.768;2022-09-30T04:38:56;98674.72;;;6.77;100.00
46876;BME280;32866;50.160;14.768;2022-09-30T04:41:22;98699.69;;;7.04;100.00
46876;BME280;32866;50.160;14.768;2022-09-30T04:43:47;98708.38;;;6.99;100.00
46876;BME280;32866;50.160;14.768;2022-09-30T04:46:14;98675.25;;;6.72;100.00
46876;BME280;32866;50.160;14.768;2022-09-30T04:48:40;98701.56;;;7.08;100.00
46876;BME280;32866;50.160;14.768;2022-09-30T04:51:13;98671.81;;;6.84;100.00
46876;BME280;32866;50.160;14.768;2022-09-30T04:53:38;98715.31;;;7.17;100.00
46876;BME280;32866;50.160;14.768;2022-09-30T04:56:04;98677.28;;;6.84;100.00
46876;BME280;32866;50.160;14.768;2022-09-30T04:58:30;98710.06;;;7.10;100.00
46876;BME280;32866;50.160;14.768;2022-09-30T05:01:16;98715.78;;;7.28;100.00
46876;BME280;32866;50.160;14.768;2022-09-30T05:03:42;98674.34;;;6.91;100.00
46876;BME280;32866;50.160;14.768;2022-09-30T05:06:08;98715.56;;;7.35;100.00
46876;BME280;32866;50.160;14.768;2022-09-30T05:08:34;98702.06;;;7.32;100.00
46876;BME280;32866;50.160;14.768;2022-09-30T05:11:03;98726.19;;;7.46;100.00
46876;BME280;32866;50.160;14.768;2022-09-30T05:13:31;98724.75;;;7.41;100.00
46876;BME280;32866;50.160;14.768;2022-09-30T05:15:56;98723.56;;;7.42;100.00
46876;BME280;32866;50.160;14.768;2022-09-30T05:18:22;98721.75;;;7.23;100.00
46876;BME280;32866;50.160;14.768;2022-09-30T05:20:51;98696.19;;;7.04;100.00
46876;BME280;32866;50.160;14.768;2022-09-30T05:23:18;98739.03;;;7.46;100.00
46876;BME280;32866;50.160;14.768;2022-09-30T05:25:44;98734.47;;;7.42;100.00
46876;BME280;32866;50.160;14.768;2022-09-30T05:28:10;98744.38;;;7.36;100.00
46876;BME280;32866;50.160;14.768;2022-09-30T05:30:36;98732.47;;;7.30;100.00
46876;BME280;32866;50.160;14.768;2022-09-30T05:33:02;98738.16;;;7.36;100.00
46876;BME280;32866;50.160;14.768;2022-09-30T05:35:27;98719.03;;;7.23;100.00
46876;BME280;32866;50.160;14.768;2022-09-30T05:37:52;98710.81;;;7.10;100.00
46876;BME280;32866;50.160;14.768;2022-09-30T05:40:18;98724.91;;;7.21;100.00
46876;BME280;32866;50.160;14.768;2022-09-30T05:42:43;98744.94;;;7.44;100.00
46876;BME280;32866;50.160;14.768;2022-09-30T05:45:09;98733.31;;;7.27;100.00
46876;BME280;32866;50.160;14.768;2022-09-30T05:47:34;98733.41;;;7.23;100.00
46876;BME280;32866;50.160;14.768;2022-09-30T05:50:00;98772.72;;;7.68;100.00
46876;BME280;32866;50.160;14.768;2022-09-30T05:52:25;98764.31;;;7.75;100.00
46876;BME280;32866;50.160;14.768;2022-09-30T05:54:52;98771.59;;;7.66;100.00
46876;BME280;32866;50.160;14.768;2022-09-30T05:57:18;98733.13;;;7.34;100.00
46876;BME280;32866;50.160;14.768;2022-09-30T05:59:44;98776.66;;;7.80;100.00
46876;BME280;32866;50.160;14.768;2022-09-30T06:02:10;98738.00;;;7.56;100.00
46876;BME280;32866;50.160;14.768;2022-09-30T06:04:35;98779.41;;;7.93;100.00
46876;BME280;32866;50.160;14.768;2022-09-30T06:07:01;98776.88;;;7.86;100.00
46876;BME280;32866;50.160;14.768;2022-09-30T06:09:26;98772.16;;;7.73;100.00
46876;BME280;32866;50.160;14.768;2022-09-30T06:11:51;98778.41;;;7.87;100.00
46876;BME280;32866;50.160;14.768;2022-09-30T06:14:20;98772.06;;;7.77;100.00
46876;BME280;32866;50.160;14.768;2022-09-30T06:16:46;98792.94;;;8.09;100.00
46876;BME280;32866;50.160;14.768;2022-09-30T06:19:12;98780.50;;;7.83;100.00
46876;BME280;32866;50.160;14.768;2022-09-30T06:21:38;98792.19;;;8.09;100.00
46876;BME280;32866;50.160;14.768;2022-09-30T06:24:04;98787.38;;;8.00;100.00
46876;BME280;32866;50.160;14.768;2022-09-30T06:26:29;98821.38;;;8.25;100.00
46876;BME280;32866;50.160;14.768;2022-09-30T06:28:54;98812.28;;;8.28;100.00
46876;BME280;32866;50.160;14.768;2022-09-30T06:31:20;98796.78;;;8.38;100.00
46876;BME280;32866;50.160;14.768;2022-09-30T06:33:45;98822.41;;;8.57;100.00
46876;BME280;32866;50.160;14.768;2022-09-30T06:36:11;98783.91;;;8.25;100.00
46876;BME280;32866;50.160;14.768;2022-09-30T06:38:36;98814.19;;;8.57;100.00
46876;BME280;32866;50.160;14.768;2022-09-30T06:41:02;98785.16;;;8.50;100.00
46876;BME280;32866;50.160;14.768;2022-09-30T06:43:27;98827.94;;;8.91;100.00
46876;BME280;32866;50.160;14.768;2022-09-30T06:45:53;98822.88;;;9.03;100.00
46876;BME280;32866;50.160;14.768;2022-09-30T06:48:18;98808.25;;;8.97;100.00
46876;BME280;32866;50.160;14.768;2022-09-30T06:50:44;98834.34;;;9.10;100.00
46876;BME280;32866;50.160;14.768;2022-09-30T06:53:11;98835.75;;;9.15;100.00
46876;BME280;32866;50.160;14.768;2022-09-30T06:55:37;98840.44;;;9.15;100.00
46876;BME280;32866;50.160;14.768;2022-09-30T06:58:04;98849.31;;;9.19;100.00
46876;BME280;32866;50.160;14.768;2022-09-30T07:00:32;98851.25;;;9.18;100.00
46876;BME280;32866;50.160;14.768;2022-09-30T07:02:58;98841.09;;;9.19;100.00
46876;BME280;32866;50.160;14.768;2022-09-30T07:05:23;98851.25;;;9.18;100.00
46876;BME280;32866;50.160;14.768;2022-09-30T07:07:52;98847.84;;;9.27;100.00
46876;BME280;32866;50.160;14.768;2022-09-30T07:10:19;98845.41;;;9.42;100.00
46876;BME280;32866;50.160;14.768;2022-09-30T07:12:47;98846.13;;;9.55;100.00
46876;BME280;32866;50.160;14.768;2022-09-30T07:17:52;98834.28;;;9.58;100.00
46876;BME280;32866;50.160;14.768;2022-09-30T07:20:17;98851.16;;;9.79;100.00
46876;BME280;32866;50.160;14.768;2022-09-30T07:22:43;98851.53;;;9.68;100.00
46876;BME280;32866;50.160;14.768;2022-09-30T07:25:09;98858.97;;;9.90;100.00
46876;BME280;32866;50.160;14.768;2022-09-30T07:27:35;98856.19;;;10.02;100.00
46876;BME280;32866;50.160;14.768;2022-09-30T07:30:02;98841.16;;;9.85;100.00
46876;BME280;32866;50.160;14.768;2022-09-30T07:32:27;98853.25;;;10.19;100.00
46876;BME280;32866;50.160;14.768;2022-09-30T07:34:52;98825.88;;;9.75;100.00
46876;BME280;32866;50.160;14.768;2022-09-30T07:37:18;98869.28;;;10.08;100.00
46876;BME280;32866;50.160;14.768;2022-09-30T07:39:45;98873.34;;;10.25;100.00
46876;BME280;32866;50.160;14.768;2022-09-30T07:42:13;98873.75;;;10.36;100.00
46876;BME280;32866;50.160;14.768;2022-09-30T07:44:39;98854.47;;;9.96;100.00
46876;BME280;32866;50.160;14.768;2022-09-30T07:47:08;98867.88;;;10.25;100.00
46876;BME280;32866;50.160;14.768;2022-09-30T07:49:34;98856.28;;;10.21;100.00
46876;BME280;32866;50.160;14.768;2022-09-30T07:52:00;98877.44;;;10.43;100.00
46876;BME280;32866;50.160;14.768;2022-09-30T07:54:27;98878.06;;;10.47;100.00
46876;BME280;32866;50.160;14.768;2022-09-30T07:56:54;98874.06;;;10.38;100.00
46876;BME280;32866;50.160;14.768;2022-09-30T07:59:20;98842.16;;;10.23;100.00
46876;BME280;32866;50.160;14.768;2022-09-30T08:01:45;98873.69;;;10.58;100.00
46876;BME280;32866;50.160;14.768;2022-09-30T08:04:12;98885.75;;;10.70;100.00
46876;BME280;32866;50.160;14.768;2022-09-30T08:06:44;98887.66;;;10.83;100.00
46876;BME280;32866;50.160;14.768;2022-09-30T08:09:10;98832.44;;;10.62;100.00
46876;BME280;32866;50.160;14.768;2022-09-30T08:11:37;98885.28;;;11.03;100.00
46876;BME280;32866;50.160;14.768;2022-09-30T08:14:04;98881.94;;;11.08;100.00
46876;BME280;32866;50.160;14.768;2022-09-30T08:16:30;98881.59;;;10.97;100.00
46876;BME280;32866;50.160;14.768;2022-09-30T08:18:59;98889.25;;;11.11;100.00
46876;BME280;32866;50.160;14.768;2022-09-30T08:21:26;98896.69;;;11.11;100.00
46876;BME280;32866;50.160;14.768;2022-09-30T08:23:52;98882.81;;;10.96;100.00
46876;BME280;32866;50.160;14.768;2022-09-30T08:26:18;98864.25;;;11.00;100.00
46876;BME280;32866;50.160;14.768;2022-09-30T08:28:44;98909.72;;;11.47;100.00
46876;BME280;32866;50.160;14.768;2022-09-30T08:31:16;98910.97;;;11.46;100.00
46876;BME280;32866;50.160;14.768;2022-09-30T08:33:43;98917.69;;;11.55;100.00
46876;BME280;32866;50.160;14.768;2022-09-30T08:36:14;98916.63;;;11.70;100.00
46876;BME280;32866;50.160;14.768;2022-09-30T08:38:40;98919.97;;;11.84;100.00
46876;BME280;32866;50.160;14.768;2022-09-30T08:46:47;98925.31;;;12.15;100.00
46876;BME280;32866;50.160;14.768;2022-09-30T08:52:04;98914.03;;;11.67;100.00
46876;BME280;32866;50.160;14.768;2022-09-30T08:54:35;98935.69;;;11.83;100.00
46876;BME280;32866;50.160;14.768;2022-09-30T08:57:03;98947.72;;;11.86;100.00
46876;BME280;32866;50.160;14.768;2022-09-30T08:59:35;98948.50;;;11.86;100.00
46876;BME280;32866;50.160;14.768;2022-09-30T09:02:17;98949.75;;;12.04;100.00
46876;BME280;32866;50.160;14.768;2022-09-30T09:04:47;98960.13;;;12.00;100.00
46876;BME280;32866;50.160;14.768;2022-09-30T09:07:25;98958.25;;;11.87;100.00
46876;BME280;32866;50.160;14.768;2022-09-30T09:12:59;98960.41;;;12.20;100.00
46876;BME280;32866;50.160;14.768;2022-09-30T09:21:52;98964.09;;;12.78;100.00
46876;BME280;32866;50.160;14.768;2022-09-30T09:24:32;98951.13;;;12.79;100.00
46876;BME280;32866;50.160;14.768;2022-09-30T09:32:30;98924.53;;;12.85;98.98
46876;BME280;32866;50.160;14.768;2022-09-30T09:35:03;98920.22;;;12.93;99.66
46876;BME280;32866;50.160;14.768;2022-09-30T09:37:53;98958.09;;;13.32;100.00
46876;BME280;32866;50.160;14.768;2022-09-30T09:46:40;98943.88;;;13.33;100.00
46876;BME280;32866;50.160;14.768;2022-09-30T09:54:38;98945.66;;;14.24;92.98
46876;BME280;32866;50.160;14.768;2022-09-30T09:57:10;98947.06;;;14.19;97.01
46876;BME280;32866;50.160;14.768;2022-09-30T09:59:38;98952.56;;;14.19;91.02
46876;BME280;32866;50.160;14.768;2022-09-30T10:02:36;98952.25;;;14.41;88.60
46876;BME280;32866;50.160;14.768;2022-09-30T10:05:02;98939.28;;;14.33;89.01
46876;BME280;32866;50.160;14.768;2022-09-30T10:07:29;98960.41;;;14.51;87.25
46876;BME280;32866;50.160;14.768;2022-09-30T10:10:16;98953.97;;;14.69;86.52
46876;BME280;32866;50.160;14.768;2022-09-30T10:12:42;98963.25;;;15.01;92.22
46876;BME280;32866;50.160;14.768;2022-09-30T10:15:25;98950.94;;;14.81;89.36
46876;BME280;32866;50.160;14.768;2022-09-30T10:17:55;98958.38;;;15.46;89.23
46876;BME280;32866;50.160;14.768;2022-09-30T10:20:32;98946.91;;;15.74;88.47
46876;BME280;32866;50.160;14.768;2022-09-30T10:23:00;98958.50;;;15.99;83.86
46876;BME280;32866;50.160;14.768;2022-09-30T10:25:26;98945.78;;;15.81;83.05
46876;BME280;32866;50.160;14.768;2022-09-30T10:27:57;98963.84;;;16.28;77.21
46876;BME280;32866;50.160;14.768;2022-09-30T10:33:03;98932.31;;;16.41;87.01
46876;BME280;32866;50.160;14.768;2022-09-30T10:35:48;98948.47;;;17.06;83.05
46876;BME280;32866;50.160;14.768;2022-09-30T10:38:16;98968.34;;;17.53;78.44
46876;BME280;32866;50.160;14.768;2022-09-30T10:40:41;98960.31;;;18.38;75.58
46876;BME280;32866;50.160;14.768;2022-09-30T10:43:31;98954.56;;;18.64;73.53
46876;BME280;32866;50.160;14.768;2022-09-30T10:45:58;98961.88;;;18.79;69.96
46876;BME280;32866;50.160;14.768;2022-09-30T10:48:30;98935.88;;;18.82;70.41
46876;BME280;32866;50.160;14.768;2022-09-30T10:50:57;98931.59;;;18.75;69.19
46876;BME280;32866;50.160;14.768;2022-09-30T10:53:23;98960.88;;;19.16;68.76
46876;BME280;32866;50.160;14.768;2022-09-30T10:55:49;98948.53;;;18.88;66.69
46876;BME280;32866;50.160;14.768;2022-09-30T11:03:34;98939.69;;;18.90;68.94
46876;BME280;32866;50.160;14.768;2022-09-30T11:06:04;98958.84;;;18.71;69.06
46876;BME280;32866;50.160;14.768;2022-09-30T11:08:50;98957.06;;;18.57;70.91
46876;BME280;32866;50.160;14.768;2022-09-30T11:11:24;98956.06;;;18.60;68.05
46876;BME280;32866;50.160;14.768;2022-09-30T11:14:34;98954.03;;;18.43;68.34
46876;BME280;32866;50.160;14.768;2022-09-30T11:19:53;98940.88;;;19.28;64.88
46876;BME280;32866;50.160;14.768;2022-09-30T11:22:36;98947.25;;;19.06;63.11
46876;BME280;32866;50.160;14.768;2022-09-30T11:25:04;98958.59;;;18.75;64.56
46876;BME280;32866;50.160;14.768;2022-09-30T11:30:17;98960.88;;;19.10;68.64
46876;BME280;32866;50.160;14.768;2022-09-30T11:47:01;98952.41;;;19.61;60.03
46876;BME280;32866;50.160;14.768;2022-09-30T11:58:09;98943.03;;;19.64;62.09
46876;BME280;32866;50.160;14.768;2022-09-30T12:00:40;98949.19;;;20.10;60.71
46876;BME280;32866;50.160;14.768;2022-09-30T12:03:32;98970.41;;;20.13;61.65
46876;BME280;32866;50.160;14.768;2022-09-30T12:06:09;98971.38;;;20.21;60.97
46876;BME280;32866;50.160;14.768;2022-09-30T12:11:15;98957.06;;;20.42;61.79
46876;BME280;32866;50.160;14.768;2022-09-30T12:13:47;98950.97;;;20.07;58.40
46876;BME280;32866;50.160;14.768;2022-09-30T12:16:20;98968.31;;;20.61;62.93
46876;BME280;32866;50.160;14.768;2022-09-30T12:18:56;98957.69;;;20.59;56.17
46876;BME280;32866;50.160;14.768;2022-09-30T12:21:34;98955.44;;;20.57;53.18
46876;BME280;32866;50.160;14.768;2022-09-30T12:24:36;98952.31;;;20.72;52.65
46876;BME280;32866;50.160;14.768;2022-09-30T12:27:03;98950.56;;;20.69;52.77
46876;BME280;32866;50.160;14.768;2022-09-30T12:29:35;98965.09;;;20.87;55.02
46876;BME280;32866;50.160;14.768;2022-09-30T12:32:32;98956.75;;;21.11;50.78
46876;BME280;32866;50.160;14.768;2022-09-30T12:40:43;98931.94;;;20.89;53.57
46876;BME280;32866;50.160;14.768;2022-09-30T12:48:48;98949.03;;;21.73;47.86
46876;BME280;32866;50.160;14.768;2022-09-30T12:51:26;98953.53;;;21.32;52.23
46876;BME280;32866;50.160;14.768;2022-09-30T12:54:12;98957.47;;;21.18;48.11
46876;BME280;32866;50.160;14.768;2022-09-30T12:56:44;98936.34;;;21.03;47.86
46876;BME280;32866;50.160;14.768;2022-09-30T12:59:12;98941.09;;;20.84;48.00
46876;BME280;32866;50.160;14.768;2022-09-30T13:01:39;98905.44;;;20.46;54.53
46876;BME280;32866;50.160;14.768;2022-09-30T13:16:58;98961.41;;;21.03;48.87
46876;BME280;32866;50.160;14.768;2022-09-30T13:27:50;98944.25;;;20.27;48.41
46876;BME280;32866;50.160;14.768;2022-09-30T13:40:45;98959.13;;;20.35;47.82
46876;BME280;32866;50.160;14.768;2022-09-30T13:43:40;98950.69;;;20.11;47.24
46876;BME280;32866;50.160;14.768;2022-09-30T13:46:27;98950.44;;;20.09;46.50
46876;BME280;32866;50.160;14.768;2022-09-30T13:49:01;98960.78;;;20.14;42.62
46876;BME280;32866;50.160;14.768;2022-09-30T13:51:30;98966.53;;;19.69;47.47
46876;BME280;32866;50.160;14.768;2022-09-30T13:54:01;98967.88;;;19.39;49.46
46876;BME280;32866;50.160;14.768;2022-09-30T13:56:32;98975.25;;;19.14;50.25
46876;BME280;32866;50.160;14.768;2022-09-30T14:04:40;98965.09;;;19.34;45.50
46876;BME280;32866;50.160;14.768;2022-09-30T14:10:07;98966.31;;;19.55;49.17
46876;BME280;32866;50.160;14.768;2022-09-30T14:13:04;98961.56;;;19.39;48.05
46876;BME280;32866;50.160;14.768;2022-09-30T14:18:27;98954.13;;;19.81;48.54
46876;BME280;32866;50.160;14.768;2022-09-30T14:21:18;98951.56;;;19.89;49.50
46876;BME280;32866;50.160;14.768;2022-09-30T14:23:58;98928.53;;;19.30;48.95
46876;BME280;32866;50.160;14.768;2022-09-30T14:29:52;98963.19;;;19.87;48.19
46876;BME280;32866;50.160;14.768;2022-09-30T14:32:43;98962.50;;;19.70;47.15
46876;BME280;32866;50.160;14.768;2022-09-30T14:35:13;98962.50;;;19.70;49.82
46876;BME280;32866;50.160;14.768;2022-09-30T14:38:05;98965.28;;;19.58;50.47
46876;BME280;32866;50.160;14.768;2022-09-30T14:40:37;98955.97;;;19.50;49.45
46876;BME280;32866;50.160;14.768;2022-09-30T14:43:13;98963.25;;;19.76;48.45
46876;BME280;32866;50.160;14.768;2022-09-30T14:45:42;98954.34;;;18.90;52.55
46876;BME280;32866;50.160;14.768;2022-09-30T14:48:20;98946.66;;;17.95;55.10
46876;BME280;32866;50.160;14.768;2022-09-30T14:50:52;98934.31;;;17.47;53.79
46876;BME280;32866;50.160;14.768;2022-09-30T14:53:28;98964.19;;;17.80;59.08
46876;BME280;32866;50.160;14.768;2022-09-30T14:55:54;98964.38;;;17.60;57.92
46876;BME280;32866;50.160;14.768;2022-09-30T15:01:13;98963.16;;;17.78;56.26
46876;BME280;32866;50.160;14.768;2022-09-30T15:03:41;98924.03;;;17.53;54.73
46876;BME280;32866;50.160;14.768;2022-09-30T15:06:29;98958.41;;;17.78;59.45
46876;BME280;32866;50.160;14.768;2022-09-30T15:11:49;98956.19;;;17.39;61.57
46876;BME280;32866;50.160;14.768;2022-09-30T15:14:19;98965.53;;;17.42;57.84
46876;BME280;32866;50.160;14.768;2022-09-30T15:16:50;98976.63;;;17.04;59.44
46876;BME280;32866;50.160;14.768;2022-09-30T15:19:28;98956.78;;;16.80;67.19
46876;BME280;32866;50.160;14.768;2022-09-30T15:21:56;98979.81;;;16.97;68.30
46876;BME280;32866;50.160;14.768;2022-09-30T15:24:27;98990.31;;;16.61;63.83
46876;BME280;32866;50.160;14.768;2022-09-30T15:26:58;98960.28;;;16.22;65.32
46876;BME280;32866;50.160;14.768;2022-09-30T15:29:25;98957.63;;;15.87;65.79
46876;BME280;32866;50.160;14.768;2022-09-30T15:32:12;98987.06;;;15.90;67.82
46876;BME280;32866;50.160;14.768;2022-09-30T15:34:37;98959.13;;;15.47;70.83
46876;BME280;32866;50.160;14.768;2022-09-30T15:37:03;98976.88;;;15.40;69.23
46876;BME280;32866;50.160;14.768;2022-09-30T15:39:32;98961.34;;;15.07;71.70
46876;BME280;32866;50.160;14.768;2022-09-30T15:42:33;98951.69;;;14.82;74.37
46876;BME280;32866;50.160;14.768;2022-09-30T15:45:10;98990.63;;;15.05;72.90
46876;BME280;32866;50.160;14.768;2022-09-30T15:47:54;98996.94;;;14.90;80.81
46876;BME280;32866;50.160;14.768;2022-09-30T15:50:42;98997.09;;;14.57;80.10
46876;BME280;32866;50.160;14.768;2022-09-30T15:53:19;98995.22;;;14.48;81.05
46876;BME280;32866;50.160;14.768;2022-09-30T15:55:48;98975.41;;;14.20;80.81